sensor_id;sensor_type;location;lat;lon;timestamp;P1;durP1;ratioP1;P2;durP2;ratioP2
8066;SDS011;4076;48.076;9.118;2023-12-20T00:00:19;4.50;;;3.90;;
8066;SDS011;4076;48.076;9.118;2023-12-20T00:02:45;3.20;;;2.93;;
8066;SDS011;4076;48.076;9.118;2023-12-20T00:05:12;4.10;;;3.70;;
8066;SDS011;4076;48.076;9.118;2023-12-20T00:07:39;3.77;;;3.47;;
8066;SDS011;4076;48.076;9.118;2023-12-20T00:10:04;6.50;;;4.93;;
8066;SDS011;4076;48.076;9.118;2023-12-20T00:12:30;5.17;;;4.20;;
8066;SDS011;4076;48.076;9.118;2023-12-20T00:14:56;4.27;;;3.87;;
8066;SDS011;4076;48.076;9.118;2023-12-20T00:17:21;3.37;;;3.17;;
8066;SDS011;4076;48.076;9.118;2023-12-20T00:19:47;3.40;;;3.10;;
8066;SDS011;4076;48.076;9.118;2023-12-20T00:22:12;4.07;;;3.67;;
8066;SDS011;4076;48.076;9.118;2023-12-20T00:24:38;4.70;;;4.30;;
8066;SDS011;4076;48.076;9.118;2023-12-20T00:27:03;5.20;;;3.23;;
8066;SDS011;4076;48.076;9.118;2023-12-20T00:29:29;3.77;;;3.43;;
8066;SDS011;4076;48.076;9.118;2023-12-20T00:31:55;3.87;;;3.57;;
8066;SDS011;4076;48.076;9.118;2023-12-20T00:34:20;3.70;;;3.40;;
8066;SDS011;4076;48.076;9.118;2023-12-20T00:36:46;5.03;;;4.13;;
8066;SDS011;4076;48.076;9.118;2023-12-20T00:39:12;3.97;;;3.57;;
8066;SDS011;4076;48.076;9.118;2023-12-20T00:41:38;3.10;;;2.90;;
8066;SDS011;4076;48.076;9.118;2023-12-20T00:44:03;5.40;;;4.20;;
8066;SDS011;4076;48.076;9.118;2023-12-20T00:46:29;3.23;;;2.93;;
8066;SDS011;4076;48.076;9.118;2023-12-20T00:48:54;4.03;;;3.73;;
8066;SDS011;4076;48.076;9.118;2023-12-20T00:51:20;3.87;;;3.57;;
8066;SDS011;4076;48.076;9.118;2023-12-20T00:53:47;3.63;;;3.23;;
8066;SDS011;4076;48.076;9.118;2023-12-20T00:56:14;4.80;;;4.17;;
8066;SDS011;4076;48.076;9.118;2023-12-20T00:58:40;4.47;;;4.07;;
8066;SDS011;4076;48.076;9.118;2023-12-20T01:01:05;3.53;;;3.27;;
8066;SDS011;4076;48.076;9.118;2023-12-20T01:03:31;3.93;;;3.63;;
8066;SDS011;4076;48.076;9.118;2023-12-20T01:05:56;2.77;;;2.50;;
8066;SDS011;4076;48.076;9.118;2023-12-20T01:08:22;3.50;;;3.20;;
8066;SDS011;4076;48.076;9.118;2023-12-20T01:10:48;3.30;;;3.00;;
8066;SDS011;4076;48.076;9.118;2023-12-20T01:13:13;3.47;;;3.27;;
8066;SDS011;4076;48.076;9.118;2023-12-20T01:15:39;3.67;;;3.37;;
8066;SDS011;4076;48.076;9.118;2023-12-20T01:18:04;3.23;;;2.77;;
8066;SDS011;4076;48.076;9.118;2023-12-20T01:20:30;3.23;;;2.93;;
8066;SDS011;4076;48.076;9.118;2023-12-20T01:22:56;2.60;;;2.33;;
8066;SDS011;4076;48.076;9.118;2023-12-20T01:25:21;3.17;;;2.70;;
8066;SDS011;4076;48.076;9.118;2023-12-20T01:27:47;5.13;;;3.77;;
8066;SDS011;4076;48.076;9.118;2023-12-20T01:30:13;3.80;;;3.50;;
8066;SDS011;4076;48.076;9.118;2023-12-20T01:32:39;3.97;;;3.37;;
8066;SDS011;4076;48.076;9.118;2023-12-20T01:35:05;3.53;;;2.73;;
8066;SDS011;4076;48.076;9.118;2023-12-20T01:37:31;2.80;;;2.60;;
8066;SDS011;4076;48.076;9.118;2023-12-20T01:39:57;5.83;;;5.33;;
8066;SDS011;4076;48.076;9.118;2023-12-20T01:42:23;3.90;;;3.20;;
8066;SDS011;4076;48.076;9.118;2023-12-20T01:44:49;2.97;;;2.50;;
8066;SDS011;4076;48.076;9.118;2023-12-20T01:47:14;2.17;;;1.97;;
8066;SDS011;4076;48.076;9.118;2023-12-20T01:49:40;2.60;;;2.40;;
8066;SDS011;4076;48.076;9.118;2023-12-20T01:52:06;2.83;;;2.40;;
8066;SDS011;4076;48.076;9.118;2023-12-20T01:54:32;3.47;;;3.27;;
8066;SDS011;4076;48.076;9.118;2023-12-20T01:56:59;2.53;;;2.30;;
8066;SDS011;4076;48.076;9.118;2023-12-20T01:59:25;2.30;;;2.10;;
8066;SDS011;4076;48.076;9.118;2023-12-20T02:01:51;2.87;;;2.57;;
8066;SDS011;4076;48.076;9.118;2023-12-20T02:04:16;2.40;;;2.30;;
8066;SDS011;4076;48.076;9.118;2023-12-20T02:06:42;3.20;;;3.00;;
8066;SDS011;4076;48.076;9.118;2023-12-20T02:09:11;4.50;;;4.10;;
8066;SDS011;4076;48.076;9.118;2023-12-20T02:11:36;2.80;;;2.60;;
8066;SDS011;4076;48.076;9.118;2023-12-20T02:14:03;2.43;;;2.30;;
8066;SDS011;4076;48.076;9.118;2023-12-20T02:16:28;1.80;;;1.70;;
8066;SDS011;4076;48.076;9.118;2023-12-20T02:18:54;2.10;;;2.00;;
8066;SDS011;4076;48.076;9.118;2023-12-20T02:21:24;1.67;;;1.57;;
8066;SDS011;4076;48.076;9.118;2023-12-20T02:23:50;2.33;;;1.83;;
8066;SDS011;4076;48.076;9.118;2023-12-20T02:26:16;1.53;;;1.43;;
8066;SDS011;4076;48.076;9.118;2023-12-20T02:28:41;1.73;;;1.50;;
8066;SDS011;4076;48.076;9.118;2023-12-20T02:31:07;1.77;;;1.60;;
8066;SDS011;4076;48.076;9.118;2023-12-20T02:33:33;2.00;;;1.80;;
8066;SDS011;4076;48.076;9.118;2023-12-20T02:35:58;1.50;;;1.40;;
8066;SDS011;4076;48.076;9.118;2023-12-20T02:38:24;1.50;;;1.40;;
8066;SDS011;4076;48.076;9.118;2023-12-20T02:40:49;1.50;;;1.40;;
8066;SDS011;4076;48.076;9.118;2023-12-20T02:43:15;2.40;;;1.80;;
8066;SDS011;4076;48.076;9.118;2023-12-20T02:45:41;2.07;;;1.47;;
8066;SDS011;4076;48.076;9.118;2023-12-20T02:48:06;1.30;;;1.20;;
8066;SDS011;4076;48.076;9.118;2023-12-20T02:50:32;1.20;;;1.10;;
8066;SDS011;4076;48.076;9.118;2023-12-20T02:52:57;1.60;;;1.50;;
8066;SDS011;4076;48.076;9.118;2023-12-20T02:55:23;1.30;;;1.20;;
8066;SDS011;4076;48.076;9.118;2023-12-20T02:57:48;1.37;;;1.27;;
8066;SDS011;4076;48.076;9.118;2023-12-20T03:00:14;1.30;;;1.20;;
8066;SDS011;4076;48.076;9.118;2023-12-20T03:02:40;1.67;;;1.50;;
8066;SDS011;4076;48.076;9.118;2023-12-20T03:05:05;1.40;;;1.30;;
8066;SDS011;4076;48.076;9.118;2023-12-20T03:07:31;1.60;;;1.50;;
8066;SDS011;4076;48.076;9.118;2023-12-20T03:09:57;1.73;;;1.50;;
8066;SDS011;4076;48.076;9.118;2023-12-20T03:12:22;1.57;;;1.43;;
8066;SDS011;4076;48.076;9.118;2023-12-20T03:14:48;1.60;;;1.50;;
8066;SDS011;4076;48.076;9.118;2023-12-20T03:17:14;1.53;;;1.43;;
8066;SDS011;4076;48.076;9.118;2023-12-20T03:19:40;2.80;;;2.60;;
8066;SDS011;4076;48.076;9.118;2023-12-20T03:22:05;4.27;;;1.90;;
8066;SDS011;4076;48.076;9.118;2023-12-20T03:24:31;2.33;;;2.13;;
8066;SDS011;4076;48.076;9.118;2023-12-20T03:26:56;2.30;;;2.10;;
8066;SDS011;4076;48.076;9.118;2023-12-20T03:29:22;2.50;;;2.23;;
8066;SDS011;4076;48.076;9.118;2023-12-20T03:31:47;1.63;;;1.53;;
8066;SDS011;4076;48.076;9.118;2023-12-20T03:34:13;1.90;;;1.80;;
8066;SDS011;4076;48.076;9.118;2023-12-20T03:36:38;1.57;;;1.47;;
8066;SDS011;4076;48.076;9.118;2023-12-20T03:39:05;1.90;;;1.80;;
8066;SDS011;4076;48.076;9.118;2023-12-20T03:41:30;1.70;;;1.57;;
8066;SDS011;4076;48.076;9.118;2023-12-20T03:43:56;1.93;;;1.27;;
8066;SDS011;4076;48.076;9.118;2023-12-20T03:46:21;1.60;;;1.50;;
8066;SDS011;4076;48.076;9.118;2023-12-20T03:48:47;2.03;;;1.83;;
8066;SDS011;4076;48.076;9.118;2023-12-20T03:51:12;2.83;;;1.57;;
8066;SDS011;4076;48.076;9.118;2023-12-20T03:53:38;1.30;;;1.20;;
8066;SDS011;4076;48.076;9.118;2023-12-20T03:56:05;1.77;;;1.67;;
8066;SDS011;4076;48.076;9.118;2023-12-20T03:58:31;2.00;;;1.90;;
8066;SDS011;4076;48.076;9.118;2023-12-20T04:00:56;1.90;;;1.80;;
8066;SDS011;4076;48.076;9.118;2023-12-20T04:03:22;2.17;;;1.97;;
8066;SDS011;4076;48.076;9.118;2023-12-20T04:05:48;2.30;;;1.97;;
8066;SDS011;4076;48.076;9.118;2023-12-20T04:08:13;2.10;;;1.40;;
8066;SDS011;4076;48.076;9.118;2023-12-20T04:10:39;1.43;;;1.33;;
8066;SDS011;4076;48.076;9.118;2023-12-20T04:13:04;1.50;;;1.40;;
8066;SDS011;4076;48.076;9.118;2023-12-20T04:15:30;1.50;;;1.40;;
8066;SDS011;4076;48.076;9.118;2023-12-20T04:17:55;2.90;;;2.00;;
8066;SDS011;4076;48.076;9.118;2023-12-20T04:20:21;2.00;;;1.90;;
8066;SDS011;4076;48.076;9.118;2023-12-20T04:22:46;2.27;;;2.03;;
8066;SDS011;4076;48.076;9.118;2023-12-20T04:25:12;1.60;;;1.50;;
8066;SDS011;4076;48.076;9.118;2023-12-20T04:27:37;2.20;;;2.00;;
8066;SDS011;4076;48.076;9.118;2023-12-20T04:30:03;2.20;;;2.00;;
8066;SDS011;4076;48.076;9.118;2023-12-20T04:32:29;3.93;;;2.20;;
8066;SDS011;4076;48.076;9.118;2023-12-20T04:34:55;1.47;;;1.37;;
8066;SDS011;4076;48.076;9.118;2023-12-20T04:37:20;1.87;;;1.77;;
8066;SDS011;4076;48.076;9.118;2023-12-20T04:39:46;2.37;;;2.20;;
8066;SDS011;4076;48.076;9.118;2023-12-20T04:42:11;2.50;;;1.70;;
8066;SDS011;4076;48.076;9.118;2023-12-20T04:44:37;2.10;;;2.00;;
8066;SDS011;4076;48.076;9.118;2023-12-20T04:47:02;1.53;;;1.20;;
8066;SDS011;4076;48.076;9.118;2023-12-20T04:49:28;1.50;;;1.40;;
8066;SDS011;4076;48.076;9.118;2023-12-20T04:51:54;1.00;;;1.00;;
8066;SDS011;4076;48.076;9.118;2023-12-20T04:54:20;0.80;;;0.80;;
8066;SDS011;4076;48.076;9.118;2023-12-20T04:56:46;1.80;;;1.70;;
8066;SDS011;4076;48.076;9.118;2023-12-20T04:59:12;2.93;;;2.40;;
8066;SDS011;4076;48.076;9.118;2023-12-20T05:01:38;2.23;;;2.13;;
8066;SDS011;4076;48.076;9.118;2023-12-20T05:04:04;1.70;;;1.60;;
8066;SDS011;4076;48.076;9.118;2023-12-20T05:06:29;1.30;;;1.20;;
8066;SDS011;4076;48.076;9.118;2023-12-20T05:08:55;2.20;;;1.80;;
8066;SDS011;4076;48.076;9.118;2023-12-20T05:11:21;1.90;;;1.40;;
8066;SDS011;4076;48.076;9.118;2023-12-20T05:13:46;2.40;;;1.80;;
8066;SDS011;4076;48.076;9.118;2023-12-20T05:16:12;1.40;;;1.30;;
8066;SDS011;4076;48.076;9.118;2023-12-20T05:18:39;1.80;;;1.70;;
8066;SDS011;4076;48.076;9.118;2023-12-20T05:21:05;2.50;;;2.30;;
8066;SDS011;4076;48.076;9.118;2023-12-20T05:23:30;2.40;;;2.30;;
8066;SDS011;4076;48.076;9.118;2023-12-20T05:25:56;3.33;;;3.13;;
8066;SDS011;4076;48.076;9.118;2023-12-20T05:28:21;4.80;;;4.40;;
8066;SDS011;4076;48.076;9.118;2023-12-20T05:30:47;5.80;;;4.50;;
8066;SDS011;4076;48.076;9.118;2023-12-20T05:33:12;4.63;;;4.30;;
8066;SDS011;4076;48.076;9.118;2023-12-20T05:35:38;4.17;;;3.77;;
8066;SDS011;4076;48.076;9.118;2023-12-20T05:38:04;3.47;;;3.17;;
8066;SDS011;4076;48.076;9.118;2023-12-20T05:40:29;3.47;;;3.17;;
8066;SDS011;4076;48.076;9.118;2023-12-20T05:42:55;2.57;;;2.47;;
8066;SDS011;4076;48.076;9.118;2023-12-20T05:45:20;3.27;;;3.07;;
8066;SDS011;4076;48.076;9.118;2023-12-20T05:47:46;2.60;;;2.40;;
8066;SDS011;4076;48.076;9.118;2023-12-20T05:50:11;3.73;;;3.43;;
8066;SDS011;4076;48.076;9.118;2023-12-20T05:52:37;3.43;;;2.97;;
8066;SDS011;4076;48.076;9.118;2023-12-20T05:55:02;4.23;;;3.83;;
8066;SDS011;4076;48.076;9.118;2023-12-20T05:57:28;3.30;;;2.70;;
8066;SDS011;4076;48.076;9.118;2023-12-20T05:59:54;2.80;;;2.60;;
8066;SDS011;4076;48.076;9.118;2023-12-20T06:02:19;3.87;;;3.23;;
8066;SDS011;4076;48.076;9.118;2023-12-20T06:04:45;3.93;;;3.63;;
8066;SDS011;4076;48.076;9.118;2023-12-20T06:07:11;2.43;;;2.23;;
8066;SDS011;4076;48.076;9.118;2023-12-20T06:09:38;3.50;;;3.30;;
8066;SDS011;4076;48.076;9.118;2023-12-20T06:12:03;2.60;;;2.40;;
8066;SDS011;4076;48.076;9.118;2023-12-20T06:14:29;2.27;;;2.13;;
8066;SDS011;4076;48.076;9.118;2023-12-20T06:16:55;2.93;;;2.73;;
8066;SDS011;4076;48.076;9.118;2023-12-20T06:19:22;3.43;;;3.00;;
8066;SDS011;4076;48.076;9.118;2023-12-20T06:21:47;4.50;;;3.87;;
8066;SDS011;4076;48.076;9.118;2023-12-20T06:24:13;4.33;;;3.97;;
8066;SDS011;4076;48.076;9.118;2023-12-20T06:26:39;3.40;;;3.10;;
8066;SDS011;4076;48.076;9.118;2023-12-20T06:29:04;2.60;;;2.40;;
8066;SDS011;4076;48.076;9.118;2023-12-20T06:31:30;2.57;;;2.37;;
8066;SDS011;4076;48.076;9.118;2023-12-20T06:33:58;4.27;;;3.90;;
8066;SDS011;4076;48.076;9.118;2023-12-20T06:36:25;1.73;;;1.63;;
8066;SDS011;4076;48.076;9.118;2023-12-20T06:38:51;1.90;;;1.80;;
8066;SDS011;4076;48.076;9.118;2023-12-20T06:41:16;2.27;;;2.17;;
8066;SDS011;4076;48.076;9.118;2023-12-20T06:43:42;2.93;;;2.60;;
8066;SDS011;4076;48.076;9.118;2023-12-20T06:46:08;2.47;;;2.27;;
8066;SDS011;4076;48.076;9.118;2023-12-20T06:48:34;3.53;;;3.33;;
8066;SDS011;4076;48.076;9.118;2023-12-20T06:51:00;1.90;;;1.80;;
8066;SDS011;4076;48.076;9.118;2023-12-20T06:53:27;3.20;;;2.73;;
8066;SDS011;4076;48.076;9.118;2023-12-20T06:55:52;4.03;;;3.20;;
8066;SDS011;4076;48.076;9.118;2023-12-20T06:58:21;2.23;;;2.03;;
8066;SDS011;4076;48.076;9.118;2023-12-20T07:00:46;2.00;;;1.90;;
8066;SDS011;4076;48.076;9.118;2023-12-20T07:03:12;3.27;;;3.07;;
8066;SDS011;4076;48.076;9.118;2023-12-20T07:05:38;3.70;;;3.47;;
8066;SDS011;4076;48.076;9.118;2023-12-20T07:08:04;3.87;;;2.40;;
8066;SDS011;4076;48.076;9.118;2023-12-20T07:10:29;2.23;;;2.10;;
8066;SDS011;4076;48.076;9.118;2023-12-20T07:12:55;2.20;;;2.00;;
8066;SDS011;4076;48.076;9.118;2023-12-20T07:15:21;2.33;;;2.13;;
8066;SDS011;4076;48.076;9.118;2023-12-20T07:17:47;2.40;;;2.20;;
8066;SDS011;4076;48.076;9.118;2023-12-20T07:20:12;1.90;;;1.70;;
8066;SDS011;4076;48.076;9.118;2023-12-20T07:22:38;2.03;;;1.93;;
8066;SDS011;4076;48.076;9.118;2023-12-20T07:25:04;2.07;;;1.87;;
8066;SDS011;4076;48.076;9.118;2023-12-20T07:27:30;2.30;;;1.77;;
8066;SDS011;4076;48.076;9.118;2023-12-20T07:29:55;2.27;;;2.07;;
8066;SDS011;4076;48.076;9.118;2023-12-20T07:32:21;2.47;;;2.27;;
8066;SDS011;4076;48.076;9.118;2023-12-20T07:34:47;1.80;;;1.70;;
8066;SDS011;4076;48.076;9.118;2023-12-20T07:37:12;2.27;;;2.13;;
8066;SDS011;4076;48.076;9.118;2023-12-20T07:39:41;1.70;;;1.60;;
8066;SDS011;4076;48.076;9.118;2023-12-20T07:42:07;2.00;;;1.90;;
8066;SDS011;4076;48.076;9.118;2023-12-20T07:44:33;2.43;;;2.23;;
8066;SDS011;4076;48.076;9.118;2023-12-20T07:47:00;1.80;;;1.70;;
8066;SDS011;4076;48.076;9.118;2023-12-20T07:49:26;2.37;;;2.17;;
8066;SDS011;4076;48.076;9.118;2023-12-20T07:51:52;3.03;;;2.73;;
8066;SDS011;4076;48.076;9.118;2023-12-20T07:54:17;1.60;;;1.50;;
8066;SDS011;4076;48.076;9.118;2023-12-20T07:56:43;1.70;;;1.60;;
8066;SDS011;4076;48.076;9.118;2023-12-20T07:59:10;1.70;;;1.60;;
8066;SDS011;4076;48.076;9.118;2023-12-20T08:01:35;2.60;;;2.40;;
8066;SDS011;4076;48.076;9.118;2023-12-20T08:04:01;1.60;;;1.50;;
8066;SDS011;4076;48.076;9.118;2023-12-20T08:06:27;2.00;;;1.90;;
8066;SDS011;4076;48.076;9.118;2023-12-20T08:08:56;2.17;;;1.97;;
8066;SDS011;4076;48.076;9.118;2023-12-20T08:11:22;1.80;;;1.70;;
8066;SDS011;4076;48.076;9.118;2023-12-20T08:13:47;2.20;;;2.00;;
8066;SDS011;4076;48.076;9.118;2023-12-20T08:16:16;1.70;;;1.60;;
8066;SDS011;4076;48.076;9.118;2023-12-20T08:18:42;1.77;;;1.67;;
8066;SDS011;4076;48.076;9.118;2023-12-20T08:21:08;1.97;;;1.60;;
8066;SDS011;4076;48.076;9.118;2023-12-20T08:23:34;1.67;;;1.30;;
8066;SDS011;4076;48.076;9.118;2023-12-20T08:26:08;2.70;;;1.33;;
8066;SDS011;4076;48.076;9.118;2023-12-20T08:28:34;1.30;;;1.20;;
8066;SDS011;4076;48.076;9.118;2023-12-20T08:31:00;1.83;;;1.53;;
8066;SDS011;4076;48.076;9.118;2023-12-20T08:33:25;1.17;;;1.07;;
8066;SDS011;4076;48.076;9.118;2023-12-20T08:35:51;1.57;;;1.13;;
8066;SDS011;4076;48.076;9.118;2023-12-20T08:38:16;2.53;;;1.53;;
8066;SDS011;4076;48.076;9.118;2023-12-20T08:40:42;1.30;;;1.20;;
8066;SDS011;4076;48.076;9.118;2023-12-20T08:43:08;1.47;;;1.37;;
8066;SDS011;4076;48.076;9.118;2023-12-20T08:45:34;1.40;;;1.30;;
8066;SDS011;4076;48.076;9.118;2023-12-20T08:48:00;1.37;;;1.27;;
8066;SDS011;4076;48.076;9.118;2023-12-20T08:50:26;1.07;;;1.00;;
8066;SDS011;4076;48.076;9.118;2023-12-20T08:52:51;1.10;;;1.10;;
8066;SDS011;4076;48.076;9.118;2023-12-20T08:55:17;1.53;;;1.43;;
8066;SDS011;4076;48.076;9.118;2023-12-20T08:57:44;1.33;;;1.23;;
8066;SDS011;4076;48.076;9.118;2023-12-20T09:00:10;1.40;;;1.10;;
8066;SDS011;4076;48.076;9.118;2023-12-20T09:02:36;1.20;;;1.10;;
8066;SDS011;4076;48.076;9.118;2023-12-20T09:05:02;1.20;;;1.10;;
8066;SDS011;4076;48.076;9.118;2023-12-20T09:07:28;0.80;;;0.80;;
8066;SDS011;4076;48.076;9.118;2023-12-20T09:09:56;1.10;;;0.80;;
8066;SDS011;4076;48.076;9.118;2023-12-20T09:12:22;1.00;;;0.90;;
8066;SDS011;4076;48.076;9.118;2023-12-20T09:14:48;0.80;;;0.80;;
8066;SDS011;4076;48.076;9.118;2023-12-20T09:17:15;0.80;;;0.80;;
8066;SDS011;4076;48.076;9.118;2023-12-20T09:19:41;1.40;;;0.80;;
8066;SDS011;4076;48.076;9.118;2023-12-20T09:22:08;0.77;;;0.73;;
8066;SDS011;4076;48.076;9.118;2023-12-20T09:24:34;0.80;;;0.80;;
8066;SDS011;4076;48.076;9.118;2023-12-20T09:27:00;0.80;;;0.80;;
8066;SDS011;4076;48.076;9.118;2023-12-20T09:29:26;0.80;;;0.80;;
8066;SDS011;4076;48.076;9.118;2023-12-20T09:31:52;1.00;;;0.80;;
8066;SDS011;4076;48.076;9.118;2023-12-20T09:34:17;1.47;;;1.37;;
8066;SDS011;4076;48.076;9.118;2023-12-20T09:36:43;1.10;;;1.00;;
8066;SDS011;4076;48.076;9.118;2023-12-20T09:39:15;0.80;;;0.80;;
8066;SDS011;4076;48.076;9.118;2023-12-20T09:41:45;0.80;;;0.80;;
8066;SDS011;4076;48.076;9.118;2023-12-20T09:44:15;0.80;;;0.70;;
8066;SDS011;4076;48.076;9.118;2023-12-20T09:46:43;1.00;;;0.90;;
8066;SDS011;4076;48.076;9.118;2023-12-20T09:49:10;1.00;;;0.80;;
8066;SDS011;4076;48.076;9.118;2023-12-20T09:51:35;0.73;;;0.70;;
8066;SDS011;4076;48.076;9.118;2023-12-20T09:54:03;0.70;;;0.70;;
8066;SDS011;4076;48.076;9.118;2023-12-20T09:56:29;1.07;;;0.97;;
8066;SDS011;4076;48.076;9.118;2023-12-20T09:58:55;0.80;;;0.73;;
8066;SDS011;4076;48.076;9.118;2023-12-20T10:01:21;0.80;;;0.67;;
8066;SDS011;4076;48.076;9.118;2023-12-20T10:03:46;1.00;;;0.70;;
8066;SDS011;4076;48.076;9.118;2023-12-20T10:06:12;0.80;;;0.80;;
8066;SDS011;4076;48.076;9.118;2023-12-20T10:08:38;0.70;;;0.70;;
8066;SDS011;4076;48.076;9.118;2023-12-20T10:11:04;1.73;;;1.00;;
8066;SDS011;4076;48.076;9.118;2023-12-20T10:13:30;0.80;;;0.77;;
8066;SDS011;4076;48.076;9.118;2023-12-20T10:15:56;1.00;;;0.90;;
8066;SDS011;4076;48.076;9.118;2023-12-20T10:18:22;0.80;;;0.80;;
8066;SDS011;4076;48.076;9.118;2023-12-20T10:20:48;0.90;;;0.90;;
8066;SDS011;4076;48.076;9.118;2023-12-20T10:23:15;1.57;;;1.20;;
8066;SDS011;4076;48.076;9.118;2023-12-20T10:25:41;0.70;;;0.70;;
8066;SDS011;4076;48.076;9.118;2023-12-20T10:28:16;0.90;;;0.90;;
8066;SDS011;4076;48.076;9.118;2023-12-20T10:30:48;0.70;;;0.70;;
8066;SDS011;4076;48.076;9.118;2023-12-20T10:33:15;1.40;;;0.73;;
8066;SDS011;4076;48.076;9.118;2023-12-20T10:35:52;0.70;;;0.70;;
8066;SDS011;4076;48.076;9.118;2023-12-20T10:38:18;3.27;;;2.90;;
8066;SDS011;4076;48.076;9.118;2023-12-20T10:40:45;7.33;;;6.83;;
8066;SDS011;4076;48.076;9.118;2023-12-20T10:43:11;4.30;;;4.07;;
8066;SDS011;4076;48.076;9.118;2023-12-20T10:45:37;1.70;;;1.60;;
8066;SDS011;4076;48.076;9.118;2023-12-20T10:48:03;1.50;;;1.40;;
8066;SDS011;4076;48.076;9.118;2023-12-20T10:50:30;1.37;;;1.20;;
8066;SDS011;4076;48.076;9.118;2023-12-20T10:52:57;1.10;;;0.90;;
8066;SDS011;4076;48.076;9.118;2023-12-20T10:55:23;1.27;;;0.90;;
8066;SDS011;4076;48.076;9.118;2023-12-20T10:57:49;0.90;;;0.80;;
8066;SDS011;4076;48.076;9.118;2023-12-20T11:00:17;0.80;;;0.80;;
8066;SDS011;4076;48.076;9.118;2023-12-20T11:02:44;0.80;;;0.80;;
8066;SDS011;4076;48.076;9.118;2023-12-20T11:05:13;0.80;;;0.80;;
8066;SDS011;4076;48.076;9.118;2023-12-20T11:08:07;1.50;;;1.40;;
8066;SDS011;4076;48.076;9.118;2023-12-20T11:13:40;2.00;;;1.60;;
8066;SDS011;4076;48.076;9.118;2023-12-20T11:16:14;1.17;;;1.10;;
8066;SDS011;4076;48.076;9.118;2023-12-20T11:18:40;0.90;;;0.90;;
8066;SDS011;4076;48.076;9.118;2023-12-20T11:21:06;1.30;;;1.20;;
8066;SDS011;4076;48.076;9.118;2023-12-20T11:23:32;1.10;;;1.00;;
8066;SDS011;4076;48.076;9.118;2023-12-20T11:26:00;2.17;;;2.03;;
8066;SDS011;4076;48.076;9.118;2023-12-20T11:28:28;4.23;;;3.93;;
8066;SDS011;4076;48.076;9.118;2023-12-20T11:30:55;3.73;;;3.53;;
8066;SDS011;4076;48.076;9.118;2023-12-20T11:33:36;1.30;;;1.20;;
8066;SDS011;4076;48.076;9.118;2023-12-20T11:36:02;1.03;;;0.97;;
8066;SDS011;4076;48.076;9.118;2023-12-20T11:38:38;1.60;;;1.40;;
8066;SDS011;4076;48.076;9.118;2023-12-20T11:41:05;1.20;;;1.10;;
8066;SDS011;4076;48.076;9.118;2023-12-20T11:43:37;1.73;;;1.20;;
8066;SDS011;4076;48.076;9.118;2023-12-20T11:46:04;1.10;;;1.00;;
8066;SDS011;4076;48.076;9.118;2023-12-20T11:48:31;1.23;;;1.10;;
8066;SDS011;4076;48.076;9.118;2023-12-20T11:50:57;1.10;;;1.00;;
8066;SDS011;4076;48.076;9.118;2023-12-20T11:53:23;1.27;;;1.00;;
8066;SDS011;4076;48.076;9.118;2023-12-20T11:55:49;1.30;;;1.20;;
8066;SDS011;4076;48.076;9.118;2023-12-20T11:58:14;1.20;;;1.10;;
8066;SDS011;4076;48.076;9.118;2023-12-20T12:00:41;1.10;;;1.00;;
8066;SDS011;4076;48.076;9.118;2023-12-20T12:03:08;1.10;;;1.00;;
8066;SDS011;4076;48.076;9.118;2023-12-20T12:05:33;1.30;;;0.97;;
8066;SDS011;4076;48.076;9.118;2023-12-20T12:07:59;1.30;;;1.13;;
8066;SDS011;4076;48.076;9.118;2023-12-20T12:10:25;1.40;;;1.30;;
8066;SDS011;4076;48.076;9.118;2023-12-20T12:12:50;1.50;;;1.40;;
8066;SDS011;4076;48.076;9.118;2023-12-20T12:15:16;1.60;;;1.30;;
8066;SDS011;4076;48.076;9.118;2023-12-20T12:17:42;1.30;;;1.17;;
8066;SDS011;4076;48.076;9.118;2023-12-20T12:20:07;1.50;;;1.40;;
8066;SDS011;4076;48.076;9.118;2023-12-20T12:22:35;1.17;;;1.07;;
8066;SDS011;4076;48.076;9.118;2023-12-20T12:25:11;1.80;;;1.63;;
8066;SDS011;4076;48.076;9.118;2023-12-20T12:27:41;1.43;;;1.30;;
8066;SDS011;4076;48.076;9.118;2023-12-20T12:30:08;2.63;;;2.43;;
8066;SDS011;4076;48.076;9.118;2023-12-20T12:32:35;2.10;;;1.40;;
8066;SDS011;4076;48.076;9.118;2023-12-20T12:35:02;4.50;;;1.43;;
8066;SDS011;4076;48.076;9.118;2023-12-20T12:37:29;1.57;;;1.47;;
8066;SDS011;4076;48.076;9.118;2023-12-20T12:39:55;1.50;;;1.40;;
8066;SDS011;4076;48.076;9.118;2023-12-20T12:42:20;1.63;;;1.50;;
8066;SDS011;4076;48.076;9.118;2023-12-20T12:44:46;3.10;;;2.90;;
8066;SDS011;4076;48.076;9.118;2023-12-20T12:47:12;1.30;;;1.20;;
8066;SDS011;4076;48.076;9.118;2023-12-20T12:49:38;3.07;;;1.60;;
8066;SDS011;4076;48.076;9.118;2023-12-20T12:52:05;2.13;;;1.67;;
8066;SDS011;4076;48.076;9.118;2023-12-20T12:54:31;1.10;;;1.00;;
8066;SDS011;4076;48.076;9.118;2023-12-20T12:56:56;2.03;;;1.20;;
8066;SDS011;4076;48.076;9.118;2023-12-20T12:59:23;1.30;;;1.10;;
8066;SDS011;4076;48.076;9.118;2023-12-20T13:01:48;1.47;;;1.37;;
8066;SDS011;4076;48.076;9.118;2023-12-20T13:04:14;1.30;;;1.20;;
8066;SDS011;4076;48.076;9.118;2023-12-20T13:06:39;1.40;;;1.30;;
8066;SDS011;4076;48.076;9.118;2023-12-20T13:09:07;1.27;;;1.17;;
8066;SDS011;4076;48.076;9.118;2023-12-20T13:11:34;3.77;;;3.50;;
8066;SDS011;4076;48.076;9.118;2023-12-20T13:14:00;1.40;;;1.30;;
8066;SDS011;4076;48.076;9.118;2023-12-20T13:16:26;2.50;;;1.17;;
8066;SDS011;4076;48.076;9.118;2023-12-20T13:18:52;1.47;;;1.37;;
8066;SDS011;4076;48.076;9.118;2023-12-20T13:21:17;4.50;;;2.03;;
8066;SDS011;4076;48.076;9.118;2023-12-20T13:23:43;3.20;;;1.50;;
8066;SDS011;4076;48.076;9.118;2023-12-20T13:26:08;1.67;;;1.53;;
8066;SDS011;4076;48.076;9.118;2023-12-20T13:28:34;2.43;;;2.23;;
8066;SDS011;4076;48.076;9.118;2023-12-20T13:30:59;3.43;;;1.90;;
8066;SDS011;4076;48.076;9.118;2023-12-20T13:33:25;4.30;;;1.90;;
8066;SDS011;4076;48.076;9.118;2023-12-20T13:35:51;1.33;;;1.23;;
8066;SDS011;4076;48.076;9.118;2023-12-20T13:38:16;1.57;;;1.47;;
8066;SDS011;4076;48.076;9.118;2023-12-20T13:40:42;2.10;;;1.27;;
8066;SDS011;4076;48.076;9.118;2023-12-20T13:43:08;3.37;;;1.73;;
8066;SDS011;4076;48.076;9.118;2023-12-20T13:45:34;1.53;;;1.43;;
8066;SDS011;4076;48.076;9.118;2023-12-20T13:47:59;5.63;;;2.10;;
8066;SDS011;4076;48.076;9.118;2023-12-20T13:50:25;3.30;;;3.13;;
8066;SDS011;4076;48.076;9.118;2023-12-20T13:52:51;1.23;;;1.13;;
8066;SDS011;4076;48.076;9.118;2023-12-20T13:55:16;6.37;;;1.50;;
8066;SDS011;4076;48.076;9.118;2023-12-20T13:57:42;1.30;;;1.10;;
8066;SDS011;4076;48.076;9.118;2023-12-20T14:00:08;1.20;;;1.10;;
8066;SDS011;4076;48.076;9.118;2023-12-20T14:02:39;1.10;;;1.00;;
8066;SDS011;4076;48.076;9.118;2023-12-20T14:05:06;1.63;;;1.53;;
8066;SDS011;4076;48.076;9.118;2023-12-20T14:07:33;1.00;;;1.00;;
8066;SDS011;4076;48.076;9.118;2023-12-20T14:09:58;1.30;;;1.20;;
8066;SDS011;4076;48.076;9.118;2023-12-20T14:12:24;2.90;;;1.10;;
8066;SDS011;4076;48.076;9.118;2023-12-20T14:14:51;1.60;;;1.37;;
8066;SDS011;4076;48.076;9.118;2023-12-20T14:17:17;1.73;;;1.63;;
8066;SDS011;4076;48.076;9.118;2023-12-20T14:19:43;2.40;;;1.37;;
8066;SDS011;4076;48.076;9.118;2023-12-20T14:22:08;1.40;;;1.20;;
8066;SDS011;4076;48.076;9.118;2023-12-20T14:24:35;1.17;;;1.07;;
8066;SDS011;4076;48.076;9.118;2023-12-20T14:27:01;1.50;;;1.40;;
8066;SDS011;4076;48.076;9.118;2023-12-20T14:29:26;1.80;;;1.70;;
8066;SDS011;4076;48.076;9.118;2023-12-20T14:31:52;1.57;;;1.47;;
8066;SDS011;4076;48.076;9.118;2023-12-20T14:34:18;3.00;;;1.10;;
8066;SDS011;4076;48.076;9.118;2023-12-20T14:36:43;2.17;;;1.23;;
8066;SDS011;4076;48.076;9.118;2023-12-20T14:39:09;1.30;;;1.00;;
8066;SDS011;4076;48.076;9.118;2023-12-20T14:41:37;1.50;;;1.30;;
8066;SDS011;4076;48.076;9.118;2023-12-20T14:44:05;2.07;;;1.30;;
8066;SDS011;4076;48.076;9.118;2023-12-20T14:46:30;3.10;;;1.30;;
8066;SDS011;4076;48.076;9.118;2023-12-20T14:48:56;2.90;;;2.67;;
8066;SDS011;4076;48.076;9.118;2023-12-20T14:51:21;2.10;;;1.53;;
8066;SDS011;4076;48.076;9.118;2023-12-20T14:53:47;1.13;;;1.03;;
8066;SDS011;4076;48.076;9.118;2023-12-20T14:56:13;1.40;;;1.20;;
8066;SDS011;4076;48.076;9.118;2023-12-20T14:58:39;1.23;;;1.13;;
8066;SDS011;4076;48.076;9.118;2023-12-20T15:01:05;1.23;;;1.13;;
8066;SDS011;4076;48.076;9.118;2023-12-20T15:03:33;2.50;;;1.23;;
8066;SDS011;4076;48.076;9.118;2023-12-20T15:05:59;3.87;;;2.70;;
8066;SDS011;4076;48.076;9.118;2023-12-20T15:08:25;2.87;;;1.73;;
8066;SDS011;4076;48.076;9.118;2023-12-20T15:10:51;2.50;;;1.63;;